createdAt,value
2023-04-15T00:01:13.492Z,100435.25
2023-04-15T00:03:41.478Z,100426.81
2023-04-15T00:06:09.869Z,100432.75
2023-04-15T00:08:37.142Z,100441.34
2023-04-15T00:11:06.119Z,100443.22
2023-04-15T00:13:34.951Z,100441.66
2023-04-15T00:16:02.469Z,100446.84
2023-04-15T00:18:30.096Z,100445.38
2023-04-15T00:20:57.516Z,100450.41
2023-04-15T00:23:25.031Z,100450.41
2023-04-15T00:25:52.390Z,100463.03
2023-04-15T00:28:19.926Z,100460.63
2023-04-15T00:30:49.227Z,100463.31
2023-04-15T00:33:16.752Z,100470.88
2023-04-15T00:35:44.174Z,100470.09
2023-04-15T00:38:11.857Z,100481.16
2023-04-15T00:40:39.376Z,100475.31
2023-04-15T00:43:07.219Z,100470.31
2023-04-15T00:45:34.619Z,100480.63
2023-04-15T00:48:04.656Z,100484.13
2023-04-15T00:50:32.204Z,100480.16
2023-04-15T00:52:59.478Z,100486.03
2023-04-15T00:55:27.005Z,100496.25
2023-04-15T00:57:54.879Z,100488.22
2023-04-15T01:00:22.909Z,100489.16
2023-04-15T01:02:51.052Z,100495.16
2023-04-15T01:05:20.608Z,100496.88
2023-04-15T01:07:48.779Z,100501.28
2023-04-15T01:10:16.410Z,100505.53
2023-04-15T01:12:44.748Z,100499.00
2023-04-15T01:15:12.246Z,100506.34
2023-04-15T01:17:40.058Z,100511.44
2023-04-15T01:20:12.457Z,100515.59
2023-04-15T01:22:41.748Z,100520.84
2023-04-15T01:25:13.233Z,100515.13
2023-04-15T01:27:45.706Z,100525.31
2023-04-15T01:30:13.276Z,100520.38
2023-04-15T01:32:40.957Z,100521.38
2023-04-15T01:35:27.255Z,100523.97
2023-04-15T01:37:59.712Z,100522.69
2023-04-15T01:40:26.959Z,100540.38
2023-04-15T01:42:56.837Z,100540.47
2023-04-15T01:45:25.935Z,100531.53
2023-04-15T01:47:54.455Z,100534.81
2023-04-15T01:50:23.065Z,100548.38
2023-04-15T01:52:51.585Z,100542.66
2023-04-15T01:55:20.291Z,100540.34
2023-04-15T01:57:48.788Z,100548.72
2023-04-15T02:00:18.750Z,100543.75
2023-04-15T02:02:47.299Z,100552.78
2023-04-15T02:05:16.319Z,100559.66
2023-04-15T02:07:49.555Z,100558.03
2023-04-15T02:10:18.560Z,100561.63
2023-04-15T02:12:47.392Z,100562.56
2023-04-15T02:15:15.961Z,100554.31
2023-04-15T02:17:51.083Z,100575.22
2023-04-15T02:20:21.592Z,100565.34
2023-04-15T02:22:50.187Z,100580.41
2023-04-15T02:25:19.167Z,100579.75
2023-04-15T02:27:47.772Z,100591.44
2023-04-15T02:30:18.852Z,100590.63
2023-04-15T02:32:48.776Z,100590.81
2023-04-15T02:35:19.975Z,100604.34
2023-04-15T02:37:48.672Z,100601.00
2023-04-15T02:40:19.562Z,100605.28
2023-04-15T02:42:48.193Z,100607.94
2023-04-15T02:45:20.494Z,100609.75
2023-04-15T02:47:50.595Z,100611.56
2023-04-15T02:50:19.392Z,100626.59
2023-04-15T02:52:47.876Z,100626.56
2023-04-15T02:55:18.177Z,100620.75
2023-04-15T02:57:46.746Z,100619.00
2023-04-15T03:00:16.380Z,100633.16
2023-04-15T03:02:47.940Z,100632.34
2023-04-15T03:05:18.046Z,100627.44
2023-04-15T03:07:52.025Z,100635.94
2023-04-15T03:10:21.689Z,100634.97
2023-04-15T03:12:50.197Z,100644.03
2023-04-15T03:15:21.444Z,100637.94
2023-04-15T03:17:53.297Z,100631.22
2023-04-15T03:20:23.648Z,100650.41
2023-04-15T03:22:52.471Z,100648.84
2023-04-15T03:25:22.975Z,100651.34
2023-04-15T03:27:51.561Z,100653.81
2023-04-15T03:30:20.149Z,100647.34
2023-04-15T03:32:49.448Z,100653.25
2023-04-15T03:35:18.158Z,100661.38
2023-04-15T03:37:49.321Z,100658.78
2023-04-15T03:40:17.881Z,100673.78
2023-04-15T03:42:46.625Z,100666.28
2023-04-15T03:45:15.312Z,100659.97
2023-04-15T03:47:44.115Z,100674.66
2023-04-15T03:50:12.773Z,100668.84
2023-04-15T03:52:41.239Z,100676.81
2023-04-15T03:55:11.405Z,100677.88
2023-04-15T03:57:40.100Z,100659.84
2023-04-15T04:00:13.098Z,100671.13
2023-04-15T04:02:41.614Z,100679.13
2023-04-15T04:05:10.850Z,100678.09
2023-04-15T04:07:39.390Z,100679.78
2023-04-15T04:10:08.780Z,100683.69
2023-04-15T04:12:38.699Z,100687.78
2023-04-15T04:15:08.468Z,100691.13
2023-04-15T04:17:37.046Z,100694.28
2023-04-15T04:20:06.876Z,100695.16
2023-04-15T04:22:38.284Z,100692.91
2023-04-15T04:25:08.752Z,100698.31
2023-04-15T04:27:38.958Z,100693.03
2023-04-15T04:30:09.182Z,100708.84
2023-04-15T04:32:37.747Z,100698.66
2023-04-15T04:35:07.306Z,100708.59
2023-04-15T04:37:36.336Z,100700.16
2023-04-15T04:40:05.976Z,100716.41
2023-04-15T04:42:34.744Z,100709.72
2023-04-15T04:45:05.314Z,100718.81
2023-04-15T04:47:33.996Z,100697.63
2023-04-15T04:50:02.813Z,100709.34
2023-04-15T04:52:31.618Z,100699.28
2023-04-15T04:55:00.050Z,100700.59
2023-04-15T04:57:28.642Z,100697.25
2023-04-15T04:59:57.722Z,100702.41
2023-04-15T05:02:27.894Z,100703.16
2023-04-15T05:04:56.950Z,100705.44
2023-04-15T05:07:25.830Z,100704.84
2023-04-15T05:09:54.217Z,100702.13
2023-04-15T05:12:22.665Z,100705.81
2023-04-15T05:14:51.528Z,100720.53
2023-04-15T05:17:20.156Z,100708.47
2023-04-15T05:19:50.304Z,100714.75
2023-04-15T05:22:18.772Z,100700.84
2023-04-15T05:24:47.254Z,100718.59
2023-04-15T05:27:15.994Z,100713.25
2023-04-15T05:29:44.744Z,100709.44
2023-04-15T05:32:13.192Z,100723.78
2023-04-15T05:34:41.976Z,100717.00
2023-04-15T05:37:12.139Z,100725.41
2023-04-15T05:39:40.652Z,100721.38
2023-04-15T05:42:09.280Z,100723.84
2023-04-15T05:44:37.744Z,100729.09
2023-04-15T05:47:07.306Z,100725.72
2023-04-15T05:49:36.287Z,100730.13
2023-04-15T05:52:05.142Z,100723.91
2023-04-15T05:54:35.155Z,100732.00
2023-04-15T05:57:04.140Z,100724.41
2023-04-15T05:59:32.869Z,100729.56
2023-04-15T06:02:01.432Z,100733.09
2023-04-15T06:04:30.560Z,100734.13
2023-04-15T06:06:59.183Z,100737.63
2023-04-15T06:09:29.008Z,100732.00
2023-04-15T06:11:59.417Z,100725.53
2023-04-15T06:14:27.872Z,100733.84
2023-04-15T06:16:56.535Z,100728.72
2023-04-15T06:19:25.718Z,100730.69
2023-04-15T06:21:54.450Z,100737.13
2023-04-15T06:24:23.130Z,100725.00
2023-04-15T06:26:51.642Z,100733.97
2023-04-15T06:29:21.542Z,100732.72
2023-04-15T06:31:50.611Z,100740.38
2023-04-15T06:34:19.222Z,100737.38
2023-04-15T06:36:47.768Z,100747.25
2023-04-15T06:39:16.355Z,100741.78
2023-04-15T06:41:45.219Z,100744.09
2023-04-15T06:44:14.150Z,100753.81
2023-04-15T06:46:44.017Z,100752.66
2023-04-15T06:49:12.581Z,100748.59
2023-04-15T06:51:42.725Z,100751.13
2023-04-15T06:54:11.288Z,100760.09
2023-04-15T06:56:39.930Z,100750.41
2023-04-15T06:59:08.787Z,100735.44
2023-04-15T07:01:37.392Z,100744.09
2023-04-15T07:04:07.762Z,100753.63
2023-04-15T07:06:36.468Z,100752.66
2023-04-15T07:09:05.837Z,100752.53
2023-04-15T07:11:34.485Z,100749.13
2023-04-15T07:14:03.009Z,100745.41
2023-04-15T07:16:31.540Z,100755.75
2023-04-15T07:19:00.656Z,100737.53
2023-04-15T07:21:30.741Z,100739.53
2023-04-15T07:23:59.280Z,100762.47
2023-04-15T07:26:28.083Z,100731.69
2023-04-15T07:28:56.880Z,100750.03
2023-04-15T07:31:25.797Z,100752.22
2023-04-15T07:33:54.280Z,100744.06
2023-04-15T07:36:22.939Z,100747.56
2023-04-15T07:38:52.879Z,100740.69
2023-04-15T07:41:21.916Z,100732.53
2023-04-15T07:43:50.789Z,100734.03
2023-04-15T07:46:19.364Z,100737.81
2023-04-15T07:48:48.259Z,100742.66
2023-04-15T07:51:17.902Z,100747.88
2023-04-15T07:53:46.686Z,100739.75
2023-04-15T07:56:16.771Z,100733.41
2023-04-15T07:58:45.298Z,100740.97
2023-04-15T08:01:13.990Z,100737.81
2023-04-15T08:03:43.258Z,100734.81
2023-04-15T08:06:12.526Z,100745.97
2023-04-15T08:08:41.740Z,100741.13
2023-04-15T08:11:10.254Z,100744.00
2023-04-15T08:13:40.140Z,100733.47
2023-04-15T08:16:19.080Z,100745.47
2023-04-15T08:18:47.828Z,100736.53
2023-04-15T08:21:16.927Z,100741.94
2023-04-15T08:23:46.625Z,100731.84
2023-04-15T08:26:15.270Z,100742.34
2023-04-15T08:28:46.126Z,100733.38
2023-04-15T08:31:16.417Z,100738.69
2023-04-15T08:33:45.966Z,100728.91
2023-04-15T08:36:15.034Z,100739.91
2023-04-15T08:38:45.079Z,100737.06
2023-04-15T08:41:26.291Z,100738.91
2023-04-15T08:43:59.130Z,100735.56
2023-04-15T08:46:28.352Z,100728.63
2023-04-15T08:48:58.471Z,100725.97
2023-04-15T08:51:27.367Z,100721.88
2023-04-15T08:53:55.883Z,100724.72
2023-04-15T08:56:27.009Z,100722.69
2023-04-15T08:58:58.020Z,100722.00
2023-04-15T09:01:27.014Z,100712.09
2023-04-15T09:03:57.311Z,100711.31
2023-04-15T09:06:26.330Z,100702.97
2023-04-15T09:08:55.125Z,100722.53
2023-04-15T09:11:24.868Z,100722.13
2023-04-15T09:13:53.454Z,100724.25
2023-04-15T09:16:23.230Z,100724.75
2023-04-15T09:18:52.725Z,100719.22
2023-04-15T09:21:22.348Z,100720.13
2023-04-15T09:23:58.315Z,100714.09
2023-04-15T09:26:34.771Z,100711.25
2023-04-15T09:29:06.087Z,100720.72
2023-04-15T09:31:36.919Z,100722.91
2023-04-15T09:34:06.333Z,100731.06
2023-04-15T09:36:54.753Z,100721.91
2023-04-15T09:39:23.618Z,100726.09
2023-04-15T09:42:06.861Z,100725.16
2023-04-15T09:44:35.891Z,100727.91
2023-04-15T09:47:06.491Z,100717.09
2023-04-15T09:49:35.169Z,100720.66
2023-04-15T09:52:06.115Z,100725.91
2023-04-15T09:54:37.687Z,100724.88
2023-04-15T09:57:07.410Z,100719.91
2023-04-15T09:59:36.304Z,100715.31
2023-04-15T10:02:07.725Z,100723.59
2023-04-15T10:04:38.674Z,100722.19
2023-04-15T10:07:08.789Z,100727.06
2023-04-15T10:09:38.975Z,100731.56
2023-04-15T10:12:07.561Z,100725.91
2023-04-15T10:14:38.815Z,100729.28
2023-04-15T10:17:12.445Z,100718.84
2023-04-15T10:19:41.903Z,100713.47
2023-04-15T10:22:10.911Z,100717.66
2023-04-15T10:24:40.549Z,100712.81
2023-04-15T10:27:09.724Z,100715.94
2023-04-15T10:29:39.103Z,100715.00
2023-04-15T10:32:11.057Z,100712.09
2023-04-15T10:34:40.766Z,100711.09
2023-04-15T10:37:11.787Z,100715.66
2023-04-15T10:39:43.342Z,100710.22
2023-04-15T10:42:13.277Z,100710.91
2023-04-15T10:44:44.034Z,100718.25
2023-04-15T10:47:15.609Z,100707.88
2023-04-15T10:49:46.283Z,100701.03
2023-04-15T10:52:16.702Z,100712.06
2023-04-15T10:54:45.416Z,100700.44
2023-04-15T10:57:22.957Z,100703.53
2023-04-15T11:00:04.836Z,100697.41
2023-04-15T11:02:42.615Z,100704.16
2023-04-15T11:05:12.156Z,100706.03
2023-04-15T11:07:53.114Z,100703.94
2023-04-15T11:10:53.379Z,100699.50
2023-04-15T11:13:28.628Z,100692.56
2023-04-15T11:16:03.122Z,100710.63
2023-04-15T11:18:35.141Z,100696.38
2023-04-15T11:21:06.507Z,100704.50
2023-04-15T11:23:38.482Z,100694.09
2023-04-15T11:26:10.067Z,100698.50
2023-04-15T11:28:41.603Z,100698.28
2023-04-15T11:31:12.961Z,100677.56
2023-04-15T11:33:56.842Z,100694.88
2023-04-15T11:36:30.492Z,100687.19
2023-04-15T11:39:00.368Z,100694.44
2023-04-15T11:41:29.975Z,100692.09
2023-04-15T11:43:59.373Z,100680.69
2023-04-15T11:46:34.125Z,100663.13
2023-04-15T11:49:05.529Z,100683.94
2023-04-15T11:51:35.966Z,100676.31
2023-04-15T11:54:05.034Z,100683.88
2023-04-15T11:56:33.805Z,100678.75
2023-04-15T11:59:02.616Z,100666.91
2023-04-15T12:01:35.560Z,100665.66
2023-04-15T12:04:12.427Z,100654.25
2023-04-15T12:06:41.769Z,100663.88
2023-04-15T12:09:12.750Z,100660.28
2023-04-15T12:11:44.499Z,100665.63
2023-04-15T12:14:17.874Z,100637.44
2023-04-15T12:16:51.712Z,100647.38
2023-04-15T12:19:26.387Z,100654.06
2023-04-15T12:22:00.797Z,100665.22
2023-04-15T12:24:33.366Z,100671.63
2023-04-15T12:27:06.642Z,100662.13
2023-04-15T12:29:36.864Z,100663.47
2023-04-15T12:32:07.679Z,100662.94
2023-04-15T12:34:39.471Z,100651.84
2023-04-15T12:37:12.738Z,100654.09
2023-04-15T12:39:44.137Z,100664.00
2023-04-15T12:42:13.340Z,100663.91
2023-04-15T12:44:41.742Z,100667.41
2023-04-15T12:47:11.375Z,100656.28
2023-04-15T12:49:41.884Z,100663.84
2023-04-15T12:52:10.906Z,100657.63
2023-04-15T12:54:40.483Z,100657.19
2023-04-15T12:57:09.356Z,100657.75
2023-04-15T12:59:38.011Z,100651.16
2023-04-15T13:02:06.697Z,100646.59
2023-04-15T13:04:37.114Z,100656.63
2023-04-15T13:07:07.281Z,100656.91
2023-04-15T13:09:35.724Z,100648.16
2023-04-15T13:12:05.854Z,100656.88
2023-04-15T13:14:34.375Z,100656.19
2023-04-15T13:17:04.748Z,100657.28
2023-04-15T13:19:33.452Z,100665.09
2023-04-15T13:22:02.273Z,100656.25
2023-04-15T13:24:32.448Z,100665.19
2023-04-15T13:27:01.162Z,100653.19
2023-04-15T13:29:29.670Z,100664.88
2023-04-15T13:31:58.568Z,100661.16
2023-04-15T13:34:27.351Z,100670.19
2023-04-15T13:36:55.933Z,100666.94
2023-04-15T13:39:24.774Z,100660.16
2023-04-15T13:41:54.906Z,100662.19
2023-04-15T13:44:23.505Z,100668.34
2023-04-15T13:46:52.399Z,100662.56
2023-04-15T13:49:21.104Z,100657.88
2023-04-15T13:51:49.519Z,100655.75
2023-04-15T13:54:18.239Z,100643.56
2023-04-15T13:56:47.334Z,100664.38
2023-04-15T13:59:17.330Z,100653.97
2023-04-15T14:01:45.725Z,100665.34
2023-04-15T14:04:15.036Z,100660.16
2023-04-15T14:06:43.905Z,100665.91
2023-04-15T14:09:12.605Z,100656.91
2023-04-15T14:11:41.184Z,100665.53
2023-04-15T14:14:09.893Z,100657.19
2023-04-15T14:16:40.105Z,100667.84
2023-04-15T14:19:08.980Z,100667.22
2023-04-15T14:21:37.687Z,100655.00
2023-04-15T14:24:07.149Z,100663.16
2023-04-15T14:26:35.905Z,100669.91
2023-04-15T14:29:04.732Z,100655.16
2023-04-15T14:31:33.707Z,100655.13
2023-04-15T14:34:04.205Z,100666.78
2023-04-15T14:36:33.904Z,100660.72
2023-04-15T14:39:01.673Z,100663.97
2023-04-15T14:41:29.285Z,100654.91
2023-04-15T14:43:56.870Z,100659.06
2023-04-15T14:46:24.409Z,100652.06
2023-04-15T14:48:52.436Z,100650.00
2023-04-15T14:51:21.260Z,100644.59
2023-04-15T14:53:48.745Z,100645.00
2023-04-15T14:56:16.328Z,100639.75
2023-04-15T14:58:43.726Z,100638.09
2023-04-15T15:01:11.205Z,100643.94
2023-04-15T15:03:39.408Z,100641.44
2023-04-15T15:06:06.966Z,100641.56
2023-04-15T15:08:37.129Z,100643.94
2023-04-15T15:11:04.905Z,100633.63
2023-04-15T15:13:32.391Z,100641.50
2023-04-15T15:15:59.804Z,100631.75
2023-04-15T15:18:27.211Z,100635.59
2023-04-15T15:20:54.657Z,100641.78
2023-04-15T15:23:22.148Z,100648.84
2023-04-15T15:25:50.889Z,100639.59
2023-04-15T15:28:18.194Z,100641.44
2023-04-15T15:30:45.712Z,100639.59
2023-04-15T15:33:13.061Z,100631.38
2023-04-15T15:35:41.271Z,100637.53
2023-04-15T15:38:11.509Z,100633.34
2023-04-15T15:40:39.234Z,100638.59
2023-04-15T15:43:07.924Z,100632.66
2023-04-15T15:45:35.935Z,100629.41
2023-04-15T15:48:03.765Z,100632.31
2023-04-15T15:50:31.198Z,100629.31
2023-04-15T15:52:59.008Z,100624.44
2023-04-15T15:55:27.361Z,100627.56
2023-04-15T15:57:54.623Z,100629.44
2023-04-15T16:00:23.417Z,100635.03
2023-04-15T16:03:06.109Z,100635.03
2023-04-15T16:05:35.192Z,100639.09
2023-04-15T16:08:02.611Z,100629.69
2023-04-15T16:10:30.103Z,100634.34
2023-04-15T16:12:57.389Z,100636.88
2023-04-15T16:15:26.797Z,100639.44
2023-04-15T16:17:54.387Z,100637.34
2023-04-15T16:20:21.931Z,100637.59
2023-04-15T16:22:51.181Z,100639.06
2023-04-15T16:25:19.057Z,100640.81
2023-04-15T16:27:59.397Z,100639.53
2023-04-15T16:30:32.261Z,100643.16
2023-04-15T16:32:59.959Z,100634.19
2023-04-15T16:35:27.473Z,100639.53
2023-04-15T16:37:54.870Z,100634.44
2023-04-15T16:40:22.227Z,100635.47
2023-04-15T16:42:50.372Z,100632.91
2023-04-15T16:45:17.773Z,100649.97
2023-04-15T16:47:46.827Z,100652.84
2023-04-15T16:50:14.758Z,100645.53
2023-04-15T16:52:42.217Z,100647.88
2023-04-15T16:55:09.570Z,100651.19
2023-04-15T16:57:48.783Z,100641.41
2023-04-15T17:00:24.450Z,100638.47
2023-04-15T17:02:53.387Z,100650.88
2023-04-15T17:05:21.168Z,100649.47
2023-04-15T17:07:48.710Z,100651.75
2023-04-15T17:10:16.351Z,100647.06
2023-04-15T17:12:43.898Z,100643.25
2023-04-15T17:15:11.584Z,100653.75
2023-04-15T17:17:45.890Z,100646.56
2023-04-15T17:20:17.465Z,100641.56
2023-04-15T17:22:46.790Z,100656.03
2023-04-15T17:25:16.357Z,100658.91
2023-04-15T17:27:49.723Z,100655.97
2023-04-15T17:30:23.651Z,100660.38
2023-04-15T17:33:56.508Z,100661.53
2023-04-15T17:36:23.141Z,100665.00
2023-04-15T17:39:10.806Z,100661.84
2023-04-15T17:41:58.205Z,100658.69
2023-04-15T17:44:25.540Z,100658.19
2023-04-15T17:47:12.773Z,100655.38
2023-04-15T17:50:00.145Z,100661.78
2023-04-15T17:52:48.885Z,100663.25
2023-04-15T17:55:36.774Z,100671.41
2023-04-15T17:58:24.400Z,100666.81
2023-04-15T18:01:11.638Z,100678.34
2023-04-15T18:03:59.138Z,100675.31
2023-04-15T18:06:46.485Z,100674.56
2023-04-15T18:09:35.293Z,100668.97
2023-04-15T18:12:22.668Z,100673.66
2023-04-15T18:15:11.804Z,100673.34
2023-04-15T18:17:59.254Z,100677.63
2023-04-15T18:20:26.611Z,100676.81
2023-04-15T18:22:55.790Z,100673.06
2023-04-15T18:25:24.565Z,100671.41
2023-04-15T18:27:51.966Z,100669.56
2023-04-15T18:30:19.655Z,100679.75
2023-04-15T18:32:47.106Z,100676.28
2023-04-15T18:35:14.390Z,100685.00
2023-04-15T18:37:41.694Z,100678.50
2023-04-15T18:40:09.993Z,100678.72
2023-04-15T18:42:38.656Z,100680.75
2023-04-15T18:45:07.193Z,100681.72
2023-04-15T18:47:34.608Z,100686.19
2023-04-15T18:50:02.056Z,100688.22
2023-04-15T18:52:31.562Z,100689.22
2023-04-15T18:54:58.887Z,100686.78
2023-04-15T18:57:31.343Z,100687.69
2023-04-15T19:00:02.201Z,100689.03
2023-04-15T19:02:33.926Z,100698.81
2023-04-15T19:05:04.297Z,100686.81
2023-04-15T19:07:32.868Z,100683.44
2023-04-15T19:10:00.306Z,100693.91
2023-04-15T19:12:27.930Z,100696.06
2023-04-15T19:14:55.284Z,100696.53
2023-04-15T19:17:24.094Z,100701.97
2023-04-15T19:19:51.612Z,100693.75
2023-04-15T19:22:19.264Z,100698.63
2023-04-15T19:24:46.645Z,100701.16
2023-04-15T19:27:14.187Z,100697.94
2023-04-15T19:29:41.661Z,100704.81
2023-04-15T19:32:09.063Z,100702.56
2023-04-15T19:34:37.724Z,100707.38
2023-04-15T19:37:05.102Z,100706.13
2023-04-15T19:39:32.421Z,100702.84
2023-04-15T19:42:00.209Z,100694.50
2023-04-15T19:44:28.083Z,100707.94
2023-04-15T19:46:55.669Z,100704.88
2023-04-15T19:49:23.074Z,100714.19
2023-04-15T19:51:51.909Z,100708.50
2023-04-15T19:54:19.338Z,100718.84
2023-04-15T19:56:46.996Z,100707.22
2023-04-15T19:59:14.446Z,100719.94
2023-04-15T20:01:41.980Z,100709.69
2023-04-15T20:04:09.763Z,100712.97
2023-04-15T20:06:37.280Z,100724.84
2023-04-15T20:09:07.053Z,100723.38
2023-04-15T20:12:09.326Z,100714.16
2023-04-15T20:14:25.161Z,100732.09
2023-04-15T20:16:52.633Z,100732.38
2023-04-15T20:19:19.966Z,100735.09
2023-04-15T20:21:47.310Z,100730.09
2023-04-15T20:24:16.310Z,100737.03
2023-04-15T20:26:43.656Z,100742.09
2023-04-15T20:29:11.170Z,100735.25
2023-04-15T20:31:38.777Z,100743.16
2023-04-15T20:34:06.462Z,100740.81
2023-04-15T20:36:34.123Z,100739.38
2023-04-15T20:39:01.739Z,100741.78
2023-04-15T20:41:30.656Z,100747.53
2023-04-15T20:43:58.024Z,100748.16
2023-04-15T20:46:27.345Z,100749.94
2023-04-15T20:48:55.845Z,100747.53
2023-04-15T20:51:23.125Z,100747.69
2023-04-15T20:53:50.551Z,100757.22
2023-04-15T20:56:17.930Z,100753.16
2023-04-15T20:58:46.815Z,100758.22
2023-04-15T21:01:14.633Z,100749.94
2023-04-15T21:03:42.791Z,100760.94
2023-04-15T21:06:10.176Z,100765.44
2023-04-15T21:08:37.479Z,100767.38
2023-04-15T21:11:04.771Z,100762.56
2023-04-15T21:13:32.161Z,100758.47
2023-04-15T21:16:01.130Z,100761.44
2023-04-15T21:18:28.516Z,100768.97
2023-04-15T21:20:59.385Z,100765.88
2023-04-15T21:23:28.693Z,100761.97
2023-04-15T21:25:56.668Z,100765.50
2023-04-15T21:28:23.921Z,100765.41
2023-04-15T21:30:51.247Z,100766.31
2023-04-15T21:33:20.572Z,100774.25
2023-04-15T21:35:48.227Z,100772.81
2023-04-15T21:38:15.510Z,100776.25
2023-04-15T21:40:42.912Z,100772.25
2023-04-15T21:43:10.506Z,100774.91
2023-04-15T21:45:43.098Z,100781.50
2023-04-15T21:48:31.850Z,100779.97
2023-04-15T21:50:59.658Z,100776.75
2023-04-15T21:53:27.280Z,100781.84
2023-04-15T21:55:54.986Z,100783.66
2023-04-15T21:58:22.494Z,100793.13
2023-04-15T22:00:49.931Z,100792.50
2023-04-15T22:03:17.574Z,100794.53
2023-04-15T22:06:06.271Z,100786.28
2023-04-15T22:08:41.661Z,100794.97
2023-04-15T22:11:23.136Z,100794.34
2023-04-15T22:13:50.623Z,100799.56
2023-04-15T22:16:18.207Z,100801.38
2023-04-15T22:18:45.639Z,100800.81
2023-04-15T22:21:14.585Z,100795.25
2023-04-15T22:23:42.004Z,100800.56
2023-04-15T22:26:09.249Z,100797.19
2023-04-15T22:28:36.923Z,100797.94
2023-04-15T22:31:04.236Z,100806.19
2023-04-15T22:33:31.812Z,100805.44
2023-04-15T22:35:59.221Z,100810.44
2023-04-15T22:38:28.190Z,100804.97
2023-04-15T22:40:55.828Z,100809.28
2023-04-15T22:43:23.175Z,100806.19
2023-04-15T22:45:50.834Z,100818.84
2023-04-15T22:48:18.530Z,100818.13
2023-04-15T22:50:46.270Z,100819.34
2023-04-15T22:53:14.953Z,100818.78
2023-04-15T22:55:47.086Z,100811.34
2023-04-15T22:58:15.263Z,100808.31
2023-04-15T23:00:43.018Z,100815.31
2023-04-15T23:03:11.062Z,100813.78
2023-04-15T23:05:40.144Z,100815.31
2023-04-15T23:08:08.223Z,100812.13
2023-04-15T23:10:35.708Z,100816.63
2023-04-15T23:13:04.445Z,100819.63
2023-04-15T23:15:31.929Z,100825.66
2023-04-15T23:18:00.591Z,100834.38
2023-04-15T23:20:28.080Z,100831.09
2023-04-15T23:22:55.499Z,100829.53
2023-04-15T23:25:23.217Z,100833.94
2023-04-15T23:27:50.827Z,100834.25
2023-04-15T23:30:19.809Z,100837.81
2023-04-15T23:32:47.238Z,100840.94
2023-04-15T23:35:14.569Z,100839.31
2023-04-15T23:37:42.106Z,100844.38
2023-04-15T23:40:10.658Z,100842.88
2023-04-15T23:42:38.077Z,100847.34
2023-04-15T23:45:06.129Z,100841.53
2023-04-15T23:47:35.265Z,100853.38
2023-04-15T23:50:02.663Z,100851.66
2023-04-15T23:52:30.877Z,100849.88
2023-04-15T23:54:58.372Z,100854.94
2023-04-15T23:57:26.084Z,100859.25
2023-04-15T23:59:53.823Z,100864.53
